Time;durP1;ratioP1;P1;durP2;ratioP2;P2;SDS_P1;SDS_P2;PMS_P1;PMS_P2;Temp;Humidity;BMP_temperature;BMP_pressure;BME280_temperature;BME280_humidity;BME280_pressure;Samples;Min_cycle;Max_cycle;Signal;HPM_P1;HPM_P2
2023/04/19 00:01:04;;;;;;;;;;;11.40;53.00;;;9.93;57.74;102328.50;12251802;19;20238;-85
2023/04/19 00:05:06;;;;;;;;;;;11.40;53.10;;;10.07;57.84;102360.31;12254684;19;19911;-85
2023/04/19 00:09:08;;;;;;;;;;;11.30;53.10;;;9.98;57.64;102337.06;12250953;19;19919;-85
2023/04/19 00:13:10;;;;;;;;;;;11.30;53.30;;;10.00;57.86;102344.84;12249927;19;19922;-85
2023/04/19 00:17:12;;;;;;;;;;;11.30;53.20;;;9.97;57.67;102345.78;12255552;19;20332;-85
2023/04/19 00:21:14;;;;;;;;;;;11.30;53.20;;;10.02;57.72;102343.91;12253865;19;19915;-85
2023/04/19 00:25:15;;;;;;;;;;;11.30;53.30;;;9.59;57.75;102277.22;12255014;19;19929;-85
2023/04/19 00:29:17;;;;;;;;;;;11.30;53.00;;;9.93;57.65;102336.31;12251503;19;19974;-86
2023/04/19 00:33:18;;;;;;;;;;;11.30;52.70;;;9.69;57.77;102302.16;12248719;19;19943;-84
2023/04/19 00:37:20;;;;;;;;;;;11.30;50.90;;;9.86;57.71;102332.19;12252163;19;20278;-85
2023/04/19 00:41:22;;;;;;;;;;;11.20;51.50;;;9.89;57.62;102342.53;12251892;19;20263;-84
2023/04/19 00:45:25;;;;;;;;;;;11.20;51.90;;;9.87;57.78;102328.66;12252854;19;19906;-85
2023/04/19 00:49:27;;;;;;;;;;;11.20;51.40;;;9.77;57.73;102322.81;12249423;19;19915;-84
2023/04/19 00:53:29;;;;;;;;;;;11.20;51.80;;;9.83;57.65;102333.13;12248590;19;19910;-84
2023/04/19 00:57:30;;;;;;;;;;;11.40;51.90;;;9.61;57.71;102296.25;12251827;19;20275;-84
2023/04/19 01:01:32;;;;;;;;;;;11.20;51.40;;;9.74;57.62;102317.69;12249759;19;19923;-85
2023/04/19 01:05:34;;;;;;;;;;;11.40;52.20;;;9.82;57.62;102336.59;12251191;19;20301;-84
2023/04/19 01:09:39;;;;;;;;;;;11.20;51.40;;;9.77;57.73;102322.81;12246467;19;19915;-85
2023/04/19 01:13:41;;;;;;;;;;;11.20;51.50;;;9.83;57.75;102342.66;12247259;19;20266;-84
2023/04/19 01:17:44;;;;;;;;;;;11.20;50.00;;;9.74;57.47;102344.63;12250538;19;19919;-85
2023/04/19 01:21:46;;;;;;;;;;;11.20;48.90;;;9.67;57.46;102331.81;12249706;19;19921;-85
2023/04/19 01:25:49;;;;;;;;;;;11.10;50.70;;;9.54;57.63;102320.81;12249950;19;19918;-85
2023/04/19 01:29:50;;;;;;;;;;;11.10;50.50;;;9.58;57.62;102330.25;12247139;19;20356;-85
2023/04/19 01:33:52;;;;;;;;;;;11.00;51.00;;;9.58;57.40;102338.09;12249245;19;19983;-84
2023/04/19 01:37:55;;;;;;;;;;;11.00;50.80;;;9.43;57.43;102323.69;12248293;19;19923;-84
2023/04/19 01:41:56;;;;;;;;;;;10.90;50.50;;;9.23;57.47;102292.88;12247035;19;19918;-85
2023/04/19 01:45:58;;;;;;;;;;;10.90;50.60;;;9.45;57.33;102326.25;12249123;19;20287;-85
2023/04/19 01:49:59;;;;;;;;;;;10.80;51.20;;;9.41;57.32;102330.69;12245847;19;19942;-85
2023/04/19 01:54:01;;;;;;;;;;;10.80;51.20;;;9.06;57.47;102275.03;12249520;19;19946;-85
2023/04/19 01:58:03;;;;;;;;;;;10.90;50.90;;;9.20;57.39;102300.78;12244995;19;19929;-85
2023/04/19 02:02:08;;;;;;;;;;;10.70;51.10;;;9.12;57.31;102294.03;12245848;19;20283;-85
2023/04/19 02:06:12;;;;;;;;;;;10.60;51.40;;;9.09;57.31;102292.34;12248130;19;19949;-84
2023/04/19 02:10:14;;;;;;;;;;;10.60;51.70;;;8.92;57.35;102265.84;12244355;19;19923;-85
2023/04/19 02:14:15;;;;;;;;;;;10.60;51.70;;;9.09;57.18;102294.97;12247140;19;19928;-85
2023/04/19 02:18:17;;;;;;;;;;;10.60;51.80;;;9.12;57.29;102302.69;12246826;19;19955;-85
2023/04/19 02:22:19;;;;;;;;;;;10.50;51.80;;;9.10;57.25;102304.50;12244803;19;19918;-84
2023/04/19 02:26:23;;;;;;;;;;;10.50;51.30;;;8.61;57.20;102236.16;12247061;19;19915;-85
2023/04/19 02:30:24;;;;;;;;;;;10.60;51.70;;;8.90;57.28;102293.69;12244102;19;19919;-85
2023/04/19 02:34:26;;;;;;;;;;;10.30;51.70;;;8.87;57.05;102289.41;12246797;19;19933;-85
2023/04/19 02:38:28;;;;;;;;;;;10.30;51.90;;;8.77;57.07;102282.69;12245987;19;19919;-84
2023/04/19 02:42:30;;;;;;;;;;;10.40;51.90;;;8.84;57.05;102299.88;12243678;19;19919;-85
2023/04/19 02:46:31;;;;;;;;;;;10.20;51.80;;;8.72;57.13;102289.72;12246197;19;19950;-85
2023/04/19 02:50:35;;;;;;;;;;;10.10;51.30;;;8.63;57.10;102291.66;12242392;19;19926;-85
2023/04/19 02:54:37;;;;;;;;;;;10.30;51.60;;;8.36;57.13;102243.59;12245209;19;19914;-85
2023/04/19 02:58:38;;;;;;;;;;;10.00;51.40;;;8.39;56.99;102256.59;12245001;19;19923;-85
2023/04/19 03:02:42;;;;;;;;;;;9.90;51.90;;;8.39;57.08;102277.41;12248068;19;19939;-84
2023/04/19 03:06:44;;;;;;;;;;;9.90;51.70;;;8.27;57.07;102266.38;12258082;19;19921;-85
2023/04/19 03:10:47;;;;;;;;;;;9.80;51.90;;;8.36;57.21;102282.66;12252414;19;19914;-84
2023/04/19 03:14:48;;;;;;;;;;;9.80;51.60;;;8.32;57.26;102282.78;12256933;19;19918;-84
2023/04/19 03:18:50;;;;;;;;;;;9.70;51.70;;;8.08;57.11;102239.88;12257780;19;19910;-85
2023/04/19 03:22:56;;;;;;;;;;;9.70;52.00;;;8.14;57.09;102257.97;12253301;19;19910;-84
2023/04/19 03:26:59;;;;;;;;;;;9.60;52.40;;;8.18;57.13;102262.19;12256561;19;19919;-84
2023/04/19 03:31:04;;;;;;;;;;;9.60;51.90;;;8.03;56.92;102244.31;12255543;19;19919;-84
2023/04/19 03:35:06;;;;;;;;;;;9.50;52.00;;;7.89;57.19;102218.59;12258748;19;19911;-85
2023/04/19 03:39:09;;;;;;;;;;;9.50;52.10;;;8.06;57.03;102245.09;12255538;19;19929;-84
2023/04/19 03:43:13;;;;;;;;;;;9.50;52.30;;;8.08;57.23;102247.69;12250196;19;19926;-84
2023/04/19 03:47:15;;;;;;;;;;;9.40;52.20;;;7.95;57.26;102232.31;12253580;19;19954;-84
2023/04/19 03:51:20;;;;;;;;;;;9.40;52.20;;;7.94;57.05;102240.16;12251189;19;19922;-85
2023/04/19 03:55:22;;;;;;;;;;;9.40;52.30;;;7.89;56.98;102229.84;12254871;19;19918;-84
2023/04/19 03:59:24;;;;;;;;;;;9.30;52.30;;;7.82;57.15;102215.25;12255325;19;20245;-85
2023/04/19 04:03:26;;;;;;;;;;;9.30;52.70;;;7.90;56.90;102234.16;12250521;19;19926;-85
2023/04/19 04:07:27;;;;;;;;;;;9.30;52.40;;;7.84;57.13;102230.81;12248244;19;19922;-85
2023/04/19 04:11:30;;;;;;;;;;;9.20;52.40;;;7.81;57.18;102229.13;12250721;19;20325;-85
2023/04/19 04:15:32;;;;;;;;;;;9.20;52.40;;;7.79;56.96;102225.69;12251609;19;19936;-85
2023/04/19 04:19:35;;;;;;;;;;;9.10;52.50;;;7.52;57.23;102193.28;12254840;19;19926;-85
2023/04/19 04:23:37;;;;;;;;;;;9.10;52.50;;;7.69;57.05;102219.81;12251018;19;19915;-84
2023/04/19 04:27:45;;;;;;;;;;;9.10;52.60;;;7.53;57.06;102189.78;12253252;19;20230;-85
2023/04/19 04:31:51;;;;;;;;;;;9.10;52.70;;;7.56;57.17;102197.56;12246915;19;19918;-85
2023/04/19 04:35:57;;;;;;;;;;;9.10;52.70;;;7.60;57.06;102211.34;12255754;19;19925;-85
2023/04/19 04:40:04;;;;;;;;;;;9.00;52.70;;;7.54;57.15;102200.19;12248605;19;19978;-85
2023/04/19 04:44:07;;;;;;;;;;;9.00;52.70;;;7.56;57.25;102204.47;12252994;19;19923;-85
2023/04/19 04:48:11;;;;;;;;;;;9.00;52.70;;;7.53;57.31;102203.69;12251806;19;20366;-84
2023/04/19 04:52:12;;;;;;;;;;;9.00;52.80;;;7.28;57.17;102153.03;12250855;19;19942;-85
2023/04/19 04:56:25;;;;;;;;;;;9.00;52.90;;;7.44;57.39;102176.97;12249997;19;20341;-85
2023/04/19 05:00:27;;;;;;;;;;;9.00;53.00;;;7.58;57.18;102189.72;12250549;19;20578;-85
2023/04/19 05:04:35;;;;;;;;;;;9.00;53.00;;;7.54;57.25;102184.59;12250984;19;20261;-85
2023/04/19 05:08:38;;;;;;;;;;;9.00;53.10;;;7.29;57.31;102150.41;12250070;19;19911;-85
2023/04/19 05:12:54;;;;;;;;;;;8.90;53.10;;;7.56;57.16;102187.16;12248376;19;19919;-85
2023/04/19 05:16:56;;;;;;;;;;;9.00;53.20;;;7.53;57.20;102182.00;12253108;19;19945;-85
2023/04/19 05:20:58;;;;;;;;;;;9.00;53.30;;;7.24;57.43;102134.03;12248002;19;19930;-86
2023/04/19 05:25:04;;;;;;;;;;;9.00;53.30;;;7.54;57.37;102179.38;12249004;19;19998;-85
2023/04/19 05:29:06;;;;;;;;;;;9.00;53.40;;;7.37;57.49;102145.06;12249341;19;19926;-86
2023/04/19 05:33:20;;;;;;;;;;;9.00;53.40;;;7.45;57.47;102150.09;12250505;19;19915;-86
2023/04/19 05:37:24;;;;;;;;;;;9.00;53.50;;;7.45;57.47;102153.59;12251621;19;19922;-86
2023/04/19 05:41:26;;;;;;;;;;;9.10;53.60;;;7.52;57.54;102159.50;12251492;19;20357;-86
2023/04/19 05:45:27;;;;;;;;;;;9.10;53.70;;;7.62;57.60;102171.44;12255561;19;19959;-86
2023/04/19 05:49:29;;;;;;;;;;;9.10;53.70;;;7.69;57.73;102178.22;12247491;19;20680;-85
2023/04/19 05:53:48;;;;;;;;;;;9.10;53.80;;;7.72;57.60;102161.69;12251769;19;19946;-86
2023/04/19 05:57:50;;;;;;;;;;;9.20;53.90;;;7.79;57.69;102157.25;12255539;19;19923;-88
2023/04/19 06:01:51;;;;;;;;;;;9.20;53.90;;;7.77;57.85;102128.66;12251249;19;20453;-88
2023/04/19 06:05:53;;;;;;;;;;;9.30;54.10;;;7.96;57.85;102142.13;12261591;19;19930;-85
2023/04/19 06:09:55;;;;;;;;;;;9.40;54.10;;;8.06;57.85;102133.25;12257259;19;20306;-86
2023/04/19 06:13:56;;;;;;;;;;;9.60;54.20;;;8.12;57.68;102117.50;12255074;19;19932;-85
2023/04/19 06:17:58;;;;;;;;;;;9.40;53.90;;;8.44;57.93;102154.13;12251738;19;20257;-85
2023/04/19 06:22:00;;;;;;;;;;;9.80;54.00;;;8.49;57.88;102144.47;12247297;19;20345;-85
2023/04/19 06:26:02;;;;;;;;;;;10.00;53.60;;;8.56;57.70;102138.19;12256054;19;19922;-86
2023/04/19 06:30:04;;;;;;;;;;;10.00;53.70;;;8.72;57.66;102143.88;12251116;19;19933;-85
2023/04/19 06:34:06;;;;;;;;;;;10.20;53.60;;;8.75;57.85;102134.28;12252330;19;19919;-85
2023/04/19 06:38:07;;;;;;;;;;;10.30;53.60;;;8.92;57.90;102148.63;12257741;19;20361;-86
2023/04/19 06:42:09;;;;;;;;;;;10.40;53.20;;;8.90;57.79;102125.19;12257571;19;20353;-86
2023/04/19 06:46:13;;;;;;;;;;;10.50;53.30;;;9.08;57.90;102129.09;12263061;19;19922;-85
2023/04/19 06:50:14;;;;;;;;;;;10.60;53.00;;;9.19;57.72;102121.84;12255354;19;19926;-85
2023/04/19 06:54:16;;;;;;;;;;;10.70;52.60;;;9.15;57.60;102108.91;12254873;19;19966;-86
2023/04/19 06:58:17;;;;;;;;;;;10.90;52.40;;;9.07;57.68;102081.34;12246498;19;20341;-85
2023/04/19 07:02:19;;;;;;;;;;;10.80;52.50;;;9.34;57.63;102120.56;12239836;19;19922;-85
2023/04/19 07:06:21;;;;;;;;;;;10.90;52.50;;;9.46;57.70;102111.56;12249679;19;19922;-85
2023/04/19 07:10:22;;;;;;;;;;;11.00;52.30;;;9.59;57.67;102115.53;12249977;19;19936;-84
2023/04/19 07:14:24;;;;;;;;;;;11.10;52.20;;;9.65;57.74;102110.13;12252888;19;19922;-84
2023/04/19 07:18:25;;;;;;;;;;;11.10;51.80;;;9.69;57.64;102103.06;12254855;19;19922;-84
2023/04/19 07:22:26;;;;;;;;;;;11.20;51.20;;;9.81;57.53;102104.47;12246862;19;19922;-84
2023/04/19 07:26:28;;;;;;;;;;;11.30;52.20;;;9.97;57.75;102100.50;12254210;19;19934;-85
2023/04/19 07:30:29;;;;;;;;;;;11.40;51.80;;;10.08;57.73;102092.34;12251936;19;19919;-84
2023/04/19 07:34:31;;;;;;;;;;;11.50;50.40;;;10.11;57.55;102069.59;12251888;19;19915;-85
2023/04/19 07:38:32;;;;;;;;;;;11.80;50.60;;;10.17;57.70;102056.34;12253930;19;19978;-84
2023/04/19 07:42:33;;;;;;;;;;;11.80;51.30;;;10.58;57.71;102088.09;12251482;19;19925;-84
2023/04/19 07:46:35;;;;;;;;;;;12.00;50.30;;;10.63;57.69;102065.28;12254541;19;19914;-84
2023/04/19 07:50:36;;;;;;;;;;;12.10;49.00;;;10.78;57.60;102060.47;12248361;19;19923;-85
2023/04/19 07:54:38;;;;;;;;;;;12.30;50.80;;;10.95;57.45;102060.72;12245682;19;19983;-85
2023/04/19 07:58:40;;;;;;;;;;;12.50;49.30;;;11.07;57.43;102059.44;12241781;19;19926;-85
2023/04/19 08:02:43;;;;;;;;;;;12.60;47.90;;;11.07;57.47;102014.97;12246396;19;20278;-84
2023/04/19 08:06:45;;;;;;;;;;;12.80;49.90;;;11.36;57.24;102036.59;12251683;19;19926;-85
2023/04/19 08:10:46;;;;;;;;;;;13.00;46.80;;;11.70;57.19;102063.19;12246637;19;19929;-84
2023/04/19 08:14:48;;;;;;;;;;;13.10;46.70;;;11.89;57.20;102065.13;12251613;19;19936;-84
2023/04/19 08:18:50;;;;;;;;;;;13.30;47.10;;;11.74;57.07;102004.56;12250910;19;20270;-84
2023/04/19 08:22:53;;;;;;;;;;;13.50;46.90;;;12.13;56.40;102043.22;12249355;19;20432;-86
2023/04/19 08:26:55;;;;;;;;;;;13.60;48.10;;;12.25;56.36;102059.34;12246560;19;20341;-84
2023/04/19 08:30:58;;;;;;;;;;;13.70;44.90;;;12.19;56.38;102021.16;12247117;19;19929;-84
2023/04/19 08:34:59;;;;;;;;;;;13.80;45.20;;;12.36;56.33;102036.16;12249893;19;19926;-84
2023/04/19 08:39:01;;;;;;;;;;;13.90;48.50;;;12.37;56.28;102032.66;12250635;19;20258;-85
2023/04/19 08:43:06;;;;;;;;;;;14.00;45.00;;;12.66;56.37;102044.50;12246600;19;19990;-84
2023/04/19 08:47:08;;;;;;;;;;;14.10;44.30;;;12.70;56.12;102016.41;12250175;19;19923;-85
2023/04/19 08:51:11;;;;;;;;;;;14.20;44.50;;;12.77;55.77;102005.59;12245759;19;19922;-85
2023/04/19 08:55:14;;;;;;;;;;;14.20;46.60;;;12.84;55.87;102009.63;12248647;19;19915;-85
2023/04/19 08:59:16;;;;;;;;;;;14.30;44.70;;;12.69;55.81;101976.25;12244564;19;19923;-85
2023/04/19 09:03:17;;;;;;;;;;;14.40;44.70;;;12.85;55.70;101984.25;12245752;19;19911;-84
2023/04/19 09:07:25;;;;;;;;;;;14.40;44.70;;;13.00;55.70;102014.19;12247064;19;19947;-84
2023/04/19 09:11:39;;;;;;;;;;;14.50;44.60;;;13.00;55.63;102004.56;12242934;19;20357;-84
2023/04/19 09:15:43;;;;;;;;;;;14.50;43.30;;;13.13;55.42;102017.13;12249685;19;19986;-85
2023/04/19 09:19:46;;;;;;;;;;;14.50;44.10;;;13.04;54.81;101990.41;12249883;19;19955;-85
2023/04/19 09:23:48;;;;;;;;;;;14.60;42.80;;;13.17;54.97;102005.56;12244321;19;19919;-85
2023/04/19 09:27:49;;;;;;;;;;;14.60;42.30;;;13.21;54.96;102001.91;12246881;19;19926;-84
2023/04/19 09:31:58;;;;;;;;;;;14.60;46.70;;;13.08;54.93;101964.88;12247813;19;19988;-84
2023/04/19 09:36:00;;;;;;;;;;;14.70;43.90;;;13.12;54.58;101957.72;12239106;19;19926;-84
2023/04/19 09:40:21;;;;;;;;;;;14.70;41.80;;;13.32;54.71;101969.97;12237946;19;19919;-85
2023/04/19 09:44:23;;;;;;;;;;;14.80;45.00;;;13.16;54.43;101923.41;12248869;19;19915;-86
2023/04/19 09:48:24;;;;;;;;;;;14.90;44.90;;;13.59;54.60;101976.50;12244764;19;19934;-85
2023/04/19 09:52:25;;;;;;;;;;;15.00;45.40;;;13.66;54.25;101962.19;12245530;19;19926;-85
2023/04/19 09:56:27;;;;;;;;;;;15.00;44.50;;;13.68;54.35;101957.69;12245113;19;19943;-84
2023/04/19 10:00:28;;;;;;;;;;;15.10;42.50;;;13.67;54.23;101935.00;12239860;19;20759;-85
2023/04/19 10:04:30;;;;;;;;;;;15.20;43.40;;;13.78;53.96;101954.63;12244831;19;19923;-83
2023/04/19 10:08:32;;;;;;;;;;;15.20;45.50;;;13.72;54.15;101921.66;12243308;19;20319;-85
2023/04/19 10:12:34;;;;;;;;;;;15.20;43.50;;;13.81;53.90;101931.69;12241769;19;19926;-84
2023/04/19 10:16:37;;;;;;;;;;;15.30;41.70;;;13.85;54.08;101932.38;12243078;19;19911;-86
2023/04/19 10:20:57;;;;;;;;;;;15.40;45.10;;;14.01;54.09;101937.72;12250235;19;19927;-86
2023/04/19 10:25:15;;;;;;;;;;;15.40;44.70;;;14.11;53.99;101925.84;12247596;19;20348;-85
2023/04/19 10:29:54;;;;;;;;;;;15.50;42.50;;;14.24;53.99;101928.69;12247395;19;19915;-87
2023/04/19 10:33:57;;;;;;;;;;;15.60;42.30;;;14.30;53.97;101923.13;12246295;19;19906;-85
2023/04/19 10:38:08;;;;;;;;;;;15.70;45.30;;;14.37;53.36;101942.91;12244918;19;19982;-86
2023/04/19 10:42:10;;;;;;;;;;;15.70;42.70;;;14.26;53.31;101914.56;12244445;19;19922;-85
2023/04/19 10:46:20;;;;;;;;;;;15.70;43.80;;;14.30;53.29;101920.50;12240848;19;19941;-84
2023/04/19 10:50:22;;;;;;;;;;;15.80;42.10;;;14.24;53.40;101912.94;12241274;19;19911;-85
2023/04/19 10:54:33;;;;;;;;;;;15.70;43.00;;;14.23;53.41;101924.34;12243821;19;19911;-85
2023/04/19 10:59:21;;;;;;;;;;;15.70;41.90;;;14.16;53.35;101916.78;12239232;19;19927;-85
2023/04/19 11:03:43;;;;;;;;;;;15.60;43.30;;;14.13;53.18;101919.56;12238962;19;19947;-84
2023/04/19 11:07:44;;;;;;;;;;;15.50;42.60;;;14.10;53.18;101896.09;12245263;19;19918;-85
2023/04/19 11:11:46;;;;;;;;;;;15.50;44.10;;;14.16;53.16;101885.25;12240900;19;19935;-85
2023/04/19 11:15:48;;;;;;;;;;;15.60;46.30;;;14.28;52.97;101880.28;12243867;19;20329;-84
2023/04/19 11:20:07;;;;;;;;;;;15.60;43.00;;;14.42;53.16;101879.56;12248055;19;19935;-85
2023/04/19 11:24:09;;;;;;;;;;;15.70;41.80;;;14.46;53.13;101874.06;12250206;19;19943;-84
2023/04/19 11:28:11;;;;;;;;;;;15.80;44.20;;;14.56;52.86;101885.84;12254780;19;19923;-84
2023/04/19 11:32:12;;;;;;;;;;;15.90;42.30;;;14.52;53.04;101862.38;12252497;19;19918;-85
2023/04/19 11:36:14;;;;;;;;;;;16.00;43.00;;;14.54;53.02;101864.03;12248300;19;19978;-85
2023/04/19 11:40:20;;;;;;;;;;;16.00;42.30;;;14.45;52.75;101848.72;12251255;19;19988;-85
2023/04/19 11:44:22;;;;;;;;;;;16.00;44.30;;;14.58;52.89;101881.34;12251518;19;20282;-85
2023/04/19 11:48:23;;;;;;;;;;;16.00;43.80;;;14.45;52.57;101850.53;12252756;19;19931;-85
2023/04/19 11:52:25;;;;;;;;;;;16.00;41.00;;;14.41;52.63;101847.19;12251018;19;19919;-85
2023/04/19 11:56:26;;;;;;;;;;;15.90;43.00;;;14.52;52.74;101870.28;12250373;19;19926;-85
2023/04/19 12:00:29;;;;;;;;;;;15.90;41.90;;;14.47;52.50;101859.16;12253601;19;20362;-85
2023/04/19 12:04:30;;;;;;;;;;;15.90;43.10;;;14.53;52.72;101875.50;12246778;19;19934;-84
2023/04/19 12:08:36;;;;;;;;;;;15.70;43.70;;;14.34;52.19;101830.91;12251561;19;19923;-85
2023/04/19 12:12:38;;;;;;;;;;;15.90;40.90;;;14.43;52.39;101841.88;12248122;19;19922;-85
2023/04/19 12:16:39;;;;;;;;;;;15.90;43.40;;;14.48;52.36;101860.88;12254691;19;19926;-85
2023/04/19 12:20:45;;;;;;;;;;;15.90;41.10;;;14.21;52.25;101818.50;12251841;19;19915;-84
2023/04/19 12:24:52;;;;;;;;;;;15.80;41.90;;;14.54;52.29;101865.81;12255557;19;19974;-84
2023/04/19 12:28:55;;;;;;;;;;;15.90;41.40;;;14.56;52.05;101858.72;12250615;19;19944;-84
2023/04/19 12:32:57;;;;;;;;;;;15.90;39.80;;;14.54;51.71;101861.41;12247116;19;20317;-84
2023/04/19 12:36:58;;;;;;;;;;;15.90;39.40;;;14.34;51.79;101823.03;12250202;19;19918;-84
2023/04/19 12:41:00;;;;;;;;;;;15.80;42.00;;;14.45;51.75;101838.22;12250405;19;20606;-84
2023/04/19 12:45:01;;;;;;;;;;;15.80;43.20;;;14.45;51.91;101830.34;12250211;19;19934;-85
2023/04/19 12:49:03;;;;;;;;;;;15.80;41.70;;;14.25;51.84;101788.50;12244560;19;19957;-84
2023/04/19 12:53:05;;;;;;;;;;;15.80;40.60;;;14.19;51.82;101778.31;12247222;19;19929;-85
2023/04/19 12:57:07;;;;;;;;;;;15.80;44.10;;;14.37;51.82;101814.13;12250430;19;20641;-84
2023/04/19 13:01:09;;;;;;;;;;;15.80;44.10;;;14.37;51.84;101801.84;12247174;19;19922;-84
2023/04/19 13:05:11;;;;;;;;;;;15.80;41.30;;;14.43;51.91;101813.78;12250243;19;20336;-84
2023/04/19 13:09:13;;;;;;;;;;;15.70;42.40;;;14.17;51.71;101762.63;12248491;19;19918;-85
2023/04/19 13:13:15;;;;;;;;;;;15.70;43.10;;;14.28;51.87;101788.34;12246385;19;19910;-85
2023/04/19 13:17:18;;;;;;;;;;;15.70;41.40;;;14.42;51.71;101783.19;12249015;19;19911;-85
2023/04/19 13:21:21;;;;;;;;;;;15.70;44.20;;;14.38;51.73;101771.16;12250846;19;19923;-85
2023/04/19 13:25:23;;;;;;;;;;;15.70;43.20;;;14.33;51.69;101767.91;12252405;19;19921;-85
2023/04/19 13:29:24;;;;;;;;;;;15.70;44.00;;;14.17;51.50;101750.34;12248857;19;19934;-85
2023/04/19 13:33:26;;;;;;;;;;;15.60;38.90;;;14.07;51.42;101750.91;12248362;19;20415;-84
2023/04/19 13:37:28;;;;;;;;;;;15.60;44.30;;;14.17;51.59;101762.63;12248828;19;20027;-85
2023/04/19 13:41:30;;;;;;;;;;;15.50;43.90;;;14.14;51.39;101760.19;12247152;19;19929;-84
2023/04/19 13:45:31;;;;;;;;;;;15.50;42.10;;;14.14;51.47;101760.19;12246526;19;19922;-84
2023/04/19 13:49:33;;;;;;;;;;;15.50;43.20;;;14.00;51.33;101757.44;12248740;19;19919;-84
2023/04/19 13:53:34;;;;;;;;;;;15.40;43.80;;;14.05;51.41;101779.06;12239181;19;19932;-84
2023/04/19 13:57:36;;;;;;;;;;;15.40;44.20;;;13.90;51.55;101781.53;12250296;19;19919;-85
2023/04/19 14:01:37;;;;;;;;;;;15.30;44.80;;;13.87;51.32;101804.50;12246880;19;20327;-85
2023/04/19 14:05:39;;;;;;;;;;;15.30;45.20;;;13.62;51.40;101776.88;12248804;19;19927;-84
2023/04/19 14:09:41;;;;;;;;;;;15.10;44.80;;;13.46;51.38;101771.56;12249346;19;19923;-84
2023/04/19 14:13:43;;;;;;;;;;;14.90;45.90;;;13.22;51.40;101757.88;12238547;19;19944;-85
2023/04/19 14:17:45;;;;;;;;;;;14.70;46.70;;;13.17;51.56;101759.88;12250491;19;19918;-85
2023/04/19 14:21:47;;;;;;;;;;;14.50;46.80;;;13.07;51.68;101730.63;12247294;19;19913;-85
2023/04/19 14:25:49;;;;;;;;;;;14.40;47.30;;;13.17;51.78;101744.13;12251503;19;19926;-85
2023/04/19 14:29:50;;;;;;;;;;;14.30;47.60;;;13.13;51.74;101726.88;12248417;19;20243;-85
2023/04/19 14:33:52;;;;;;;;;;;14.30;48.00;;;13.24;51.55;101729.78;12247993;19;20346;-85
2023/04/19 14:37:53;;;;;;;;;;;14.30;48.20;;;13.01;51.77;101686.34;12247573;19;19937;-84
2023/04/19 14:41:56;;;;;;;;;;;14.40;48.40;;;13.21;51.72;101697.63;12245350;19;20321;-84
2023/04/19 14:45:58;;;;;;;;;;;14.40;48.60;;;13.34;51.75;101716.22;12248385;19;20342;-84
2023/04/19 14:49:59;;;;;;;;;;;14.40;48.80;;;13.27;51.88;101711.31;12246521;19;19983;-85
2023/04/19 14:54:01;;;;;;;;;;;14.40;48.80;;;13.04;51.63;101683.59;12247748;19;19967;-85
2023/04/19 14:58:08;;;;;;;;;;;14.40;48.80;;;13.12;51.70;101733.00;12254465;19;19919;-85
2023/04/19 15:02:11;;;;;;;;;;;14.30;48.60;;;12.76;51.75;101707.69;12257200;19;19941;-85
2023/04/19 15:06:13;;;;;;;;;;;14.20;48.40;;;12.63;51.88;101699.56;12260050;19;19930;-85
2023/04/19 15:10:14;;;;;;;;;;;14.10;48.60;;;12.53;51.91;101705.31;12257122;19;19922;-84
2023/04/19 15:14:15;;;;;;;;;;;13.90;48.80;;;12.44;52.14;101696.13;12257514;19;19935;-85
2023/04/19 15:18:17;;;;;;;;;;;13.80;48.90;;;12.15;52.02;101679.16;12256771;19;19926;-84
2023/04/19 15:22:18;;;;;;;;;;;13.70;49.10;;;12.17;52.10;101719.22;12255974;19;19914;-85
2023/04/19 15:26:20;;;;;;;;;;;13.60;49.10;;;12.11;52.10;101743.06;12258190;19;19970;-84
2023/04/19 15:30:21;;;;;;;;;;;13.50;49.20;;;11.90;52.17;101750.94;12253987;19;20352;-84
2023/04/19 15:34:24;;;;;;;;;;;13.40;49.10;;;11.60;52.16;101754.88;12258992;19;19932;-84
2023/04/19 15:38:27;;;;;;;;;;;13.00;49.50;;;11.34;52.34;101751.63;12257076;19;19965;-85
2023/04/19 15:42:29;;;;;;;;;;;12.90;49.40;;;11.23;52.31;101754.69;12255474;19;20035;-85
2023/04/19 15:46:30;;;;;;;;;;;12.70;49.80;;;11.00;52.30;101744.31;12256788;19;19923;-84
2023/04/19 15:50:35;;;;;;;;;;;12.50;50.00;;;10.85;52.49;101741.41;12252662;19;19942;-85
2023/04/19 15:54:37;;;;;;;;;;;12.30;50.30;;;10.51;52.42;101697.47;12253468;19;19923;-85
2023/04/19 15:58:38;;;;;;;;;;;12.20;50.30;;;10.69;52.71;101734.22;12258348;19;19923;-86
2023/04/19 16:02:40;;;;;;;;;;;12.00;50.10;;;10.72;52.65;101739.31;12251791;19;20324;-86
2023/04/19 16:06:41;;;;;;;;;;;11.90;50.30;;;10.66;52.56;101736.97;12257569;19;19915;-85
2023/04/19 16:10:44;;;;;;;;;;;11.90;50.50;;;10.66;52.50;101734.34;12250289;19;19923;-84
2023/04/19 16:14:45;;;;;;;;;;;11.80;50.50;;;10.53;52.49;101708.72;12255596;19;19919;-84
2023/04/19 16:18:47;;;;;;;;;;;11.70;50.40;;;10.68;52.55;101732.53;12257302;19;19922;-85
2023/04/19 16:22:48;;;;;;;;;;;11.70;50.50;;;10.68;52.62;101719.47;12253199;19;20345;-84
2023/04/19 16:26:49;;;;;;;;;;;11.80;50.70;;;10.76;52.65;101725.25;12254921;19;19914;-87
2023/04/19 16:30:54;;;;;;;;;;;11.80;50.80;;;10.75;52.69;101718.31;12242668;19;19915;-85
2023/04/19 16:34:56;;;;;;;;;;;11.80;50.90;;;10.58;52.69;101691.09;12248224;19;19927;-83
2023/04/19 16:38:58;;;;;;;;;;;11.80;50.70;;;10.73;52.74;101720.97;12253076;19;19915;-84
2023/04/19 16:43:00;;;;;;;;;;;11.80;50.70;;;10.59;52.65;101684.13;12249049;19;20264;-83
2023/04/19 16:47:01;;;;;;;;;;;11.80;50.80;;;10.76;52.74;101710.41;12254606;19;19918;-85
2023/04/19 16:51:03;;;;;;;;;;;11.80;50.80;;;10.44;52.69;101656.00;12246297;19;19926;-83
2023/04/19 16:55:05;;;;;;;;;;;11.80;50.80;;;10.70;52.48;101695.00;12254366;19;20354;-83
2023/04/19 16:59:07;;;;;;;;;;;11.80;50.80;;;10.48;52.67;101657.59;12255122;19;19982;-83
2023/04/19 17:03:08;;;;;;;;;;;11.90;50.90;;;10.51;52.81;101666.13;12246602;19;19913;-83
2023/04/19 17:07:11;;;;;;;;;;;11.80;50.80;;;10.73;52.80;101700.09;12252307;19;19918;-83
2023/04/19 17:11:12;;;;;;;;;;;11.90;51.30;;;10.73;52.80;101694.84;12247153;19;19926;-83
2023/04/19 17:15:14;;;;;;;;;;;11.90;50.90;;;10.63;52.86;101678.69;12252608;19;19918;-84
2023/04/19 17:19:15;;;;;;;;;;;11.90;50.90;;;10.39;52.79;101653.56;12253775;19;19926;-84
2023/04/19 17:23:16;;;;;;;;;;;11.80;51.00;;;10.60;52.82;101691.88;12245780;19;19907;-83
2023/04/19 17:27:18;;;;;;;;;;;11.80;50.90;;;10.60;52.73;101696.25;12251803;19;20362;-83
2023/04/19 17:31:19;;;;;;;;;;;11.80;50.90;;;10.53;52.99;101684.34;12245509;19;19926;-83
2023/04/19 17:35:20;;;;;;;;;;;11.70;51.10;;;10.50;52.91;101693.16;12249211;19;19911;-83
2023/04/19 17:39:26;;;;;;;;;;;11.70;51.00;;;10.14;52.92;101640.59;12250026;19;19918;-83
2023/04/19 17:43:28;;;;;;;;;;;11.70;51.20;;;10.26;53.08;101668.84;12245803;19;20317;-83
2023/04/19 17:47:29;;;;;;;;;;;11.60;51.10;;;10.44;53.04;101693.41;12249957;19;19915;-84
2023/04/19 17:51:31;;;;;;;;;;;11.60;51.30;;;10.14;53.14;101649.25;12250447;19;20554;-84
2023/04/19 17:55:33;;;;;;;;;;;11.60;51.40;;;10.44;53.24;101697.78;12249267;19;19923;-83
2023/04/19 17:59:34;;;;;;;;;;;11.60;51.30;;;10.33;53.03;101679.91;12251073;19;19999;-84
2023/04/19 18:03:36;;;;;;;;;;;11.60;51.30;;;10.41;53.17;101694.38;12248749;19;19940;-83
2023/04/19 18:07:38;;;;;;;;;;;11.70;51.40;;;10.39;53.22;101692.72;12250599;19;19916;-83
2023/04/19 18:11:39;;;;;;;;;;;11.60;51.50;;;10.40;53.22;101702.28;12244481;19;19982;-83
2023/04/19 18:15:41;;;;;;;;;;;11.60;51.50;;;10.31;53.09;101692.16;12249003;19;19927;-83
2023/04/19 18:19:42;;;;;;;;;;;11.60;51.60;;;10.26;53.17;101692.34;12247061;19;19926;-83